createdAt,value
2022-11-16T06:47:00.590Z,95.06
2022-11-16T06:49:29.494Z,94.84
2022-11-16T06:51:59.850Z,94.65
2022-11-16T06:54:28.204Z,93.79
2022-11-16T06:56:56.692Z,94.32
2022-11-16T06:59:25.047Z,93.48
2022-11-16T07:01:53.565Z,92.68
2022-11-16T07:04:21.928Z,92.78
2022-11-16T07:06:54.633Z,93.25
2022-11-16T07:09:23.177Z,93.46
2022-11-16T07:11:51.812Z,93.04
2022-11-16T07:14:20.652Z,91.98
2022-11-16T07:16:48.906Z,91.62
2022-11-16T07:19:17.295Z,91.28
2022-11-16T07:21:46.010Z,91.48
2022-11-16T07:24:17.040Z,90.91
2022-11-16T07:26:45.792Z,91.52
2022-11-16T07:29:17.488Z,91.10
2022-11-16T07:32:03.523Z,91.38
2022-11-16T07:34:51.535Z,89.43
2022-11-16T07:37:19.763Z,89.74
2022-11-16T07:39:48.224Z,89.94
2022-11-16T07:42:17.075Z,90.45
2022-11-16T07:45:12.391Z,91.09
2022-11-16T07:47:44.627Z,91.00
2022-11-16T07:50:18.215Z,92.26
2022-11-16T07:52:47.054Z,92.39
2022-11-16T07:55:26.097Z,92.16
2022-11-16T07:57:54.789Z,92.67
2022-11-16T08:00:24.791Z,92.55
2022-11-16T08:02:57.803Z,91.21
2022-11-16T08:05:26.979Z,90.17
2022-11-16T08:07:55.326Z,90.75
2022-11-16T08:10:25.124Z,90.15
2022-11-16T08:12:54.989Z,90.58
2022-11-16T08:15:25.147Z,90.60
2022-11-16T08:17:54.002Z,92.05
2022-11-16T08:20:22.593Z,92.21
2022-11-16T08:22:52.284Z,91.66
2022-11-16T08:25:20.586Z,93.23
2022-11-16T08:27:48.986Z,92.96
2022-11-16T08:39:26.645Z,93.81
2022-11-16T08:41:55.218Z,94.19
2022-11-16T08:44:23.383Z,94.26
2022-11-16T08:46:54.017Z,95.27
2022-11-16T08:49:34.507Z,94.61
2022-11-16T08:52:03.273Z,93.48
2022-11-16T08:54:31.628Z,94.74
2022-11-16T08:57:00.592Z,94.56
2022-11-16T08:59:29.314Z,93.44
2022-11-16T09:02:01.067Z,93.75
2022-11-16T09:04:34.076Z,94.57
2022-11-16T09:07:05.471Z,94.33
2022-11-16T09:09:34.123Z,92.97
2022-11-16T09:12:02.197Z,92.87
2022-11-16T09:14:30.884Z,91.45
2022-11-16T09:16:59.265Z,90.41
2022-11-16T09:19:27.494Z,91.61
2022-11-16T09:21:55.883Z,90.56
2022-11-16T09:24:24.200Z,91.08
2022-11-16T09:26:52.446Z,90.99
2022-11-16T09:29:20.565Z,90.93
2022-11-16T09:31:48.675Z,91.17
2022-11-16T09:34:17.315Z,92.22
2022-11-16T09:36:45.489Z,91.13
2022-11-16T09:39:30.257Z,90.82
2022-11-16T09:42:18.254Z,90.99
2022-11-16T09:44:57.946Z,91.40
2022-11-16T09:47:41.335Z,92.69
2022-11-16T09:50:37.615Z,91.70
2022-11-16T09:53:52.203Z,91.40
2022-11-16T09:56:23.526Z,91.05
2022-11-16T09:58:51.538Z,91.51
2022-11-16T10:01:34.568Z,91.14
2022-11-16T10:04:15.128Z,89.26
2022-11-16T10:06:58.853Z,86.73
2022-11-16T10:09:28.128Z,87.09
2022-11-16T10:12:03.268Z,87.28
2022-11-16T10:15:05.149Z,87.27
2022-11-16T10:17:55.472Z,86.88
2022-11-16T10:20:58.262Z,87.64
2022-11-16T10:23:50.758Z,87.54
2022-11-16T10:26:40.317Z,87.89
2022-11-16T10:29:34.324Z,87.87
2022-11-16T10:32:20.420Z,88.16
2022-11-16T10:35:03.649Z,88.72
2022-11-16T10:37:36.761Z,89.20
2022-11-16T10:40:18.160Z,88.32
2022-11-16T10:43:13.543Z,88.30
2022-11-16T10:46:20.683Z,88.30
2022-11-16T10:49:07.873Z,88.64
2022-11-16T10:51:36.232Z,88.45
2022-11-16T10:54:18.467Z,88.32
2022-11-16T10:56:49.912Z,88.24
2022-11-16T10:59:21.730Z,88.33
2022-11-16T11:01:53.729Z,88.88
2022-11-16T11:04:28.156Z,89.88
2022-11-16T11:06:59.156Z,91.55
2022-11-16T11:09:30.236Z,89.95
2022-11-16T11:12:23.141Z,88.94
2022-11-16T11:15:11.095Z,89.73
2022-11-16T11:17:40.684Z,89.47
2022-11-16T11:20:18.628Z,89.10
2022-11-16T11:22:59.613Z,88.94
2022-11-16T11:25:36.051Z,89.46
2022-11-16T11:28:23.615Z,89.48
2022-11-16T11:30:58.486Z,89.75
2022-11-16T11:33:31.019Z,89.90
2022-11-16T11:36:23.058Z,88.84
2022-11-16T11:39:07.342Z,88.84
2022-11-16T11:41:47.140Z,89.90
2022-11-16T11:44:18.023Z,90.58
2022-11-16T11:50:06.586Z,90.60
2022-11-16T11:52:41.412Z,90.22
2022-11-16T11:55:17.264Z,90.23
2022-11-16T11:57:49.925Z,90.88
2022-11-16T12:00:18.901Z,90.79
2022-11-16T12:03:16.264Z,91.12
2022-11-16T12:06:08.653Z,90.65
2022-11-16T12:17:48.047Z,91.65
2022-11-16T12:21:07.490Z,91.68
2022-11-16T12:23:50.546Z,91.84
2022-11-16T12:26:41.404Z,91.93
2022-11-16T12:29:30.733Z,92.73
2022-11-16T12:32:50.315Z,92.61
2022-11-16T12:35:32.241Z,91.63
2022-11-16T12:38:42.378Z,92.76
2022-11-16T12:41:31.644Z,92.82
2022-11-16T12:44:03.322Z,92.94
2022-11-16T12:46:55.748Z,93.10
2022-11-16T12:49:49.319Z,93.22
2022-11-16T12:52:36.517Z,92.99
2022-11-16T13:00:00.558Z,94.77
2022-11-16T13:03:45.225Z,94.59
2022-11-16T13:06:27.531Z,94.91
2022-11-16T13:13:48.135Z,94.20
2022-11-16T13:16:21.237Z,94.81
2022-11-16T13:18:51.227Z,94.82
2022-11-16T13:21:39.015Z,94.76
2022-11-16T13:24:22.611Z,95.12
2022-11-16T13:26:59.565Z,95.04
2022-11-16T13:29:48.872Z,95.32
2022-11-16T13:32:25.294Z,95.79
2022-11-16T13:34:54.578Z,95.93
2022-11-16T13:37:38.279Z,94.81
2022-11-16T13:40:06.493Z,94.15
2022-11-16T13:42:39.334Z,95.36
2022-11-16T13:45:22.147Z,94.78
2022-11-16T13:47:55.832Z,94.40
2022-11-16T13:50:38.138Z,94.28
2022-11-16T13:54:10.701Z,94.80
2022-11-16T13:56:04.595Z,95.11
2022-11-16T13:58:35.816Z,95.87
2022-11-16T14:01:10.922Z,95.71
2022-11-16T14:03:41.029Z,96.20
2022-11-16T14:06:24.513Z,96.18
2022-11-16T14:08:57.713Z,96.28
2022-11-16T14:11:39.220Z,95.52
2022-11-16T14:14:12.964Z,96.15
2022-11-16T14:16:51.625Z,96.71
2022-11-16T14:19:47.413Z,97.33
2022-11-16T14:22:39.171Z,97.44
2022-11-16T14:25:41.124Z,97.19
2022-11-16T14:28:26.023Z,96.59
2022-11-16T14:31:12.416Z,96.19
2022-11-16T14:33:41.199Z,97.29
2022-11-16T14:36:11.395Z,97.43
2022-11-16T14:38:42.182Z,96.90
2022-11-16T14:41:22.882Z,97.94
2022-11-16T14:43:55.604Z,98.57
2022-11-16T14:46:28.098Z,98.31
2022-11-16T14:48:59.336Z,98.73
2022-11-16T14:51:35.703Z,99.81
2022-11-16T14:54:26.101Z,99.28
2022-11-16T14:56:59.420Z,98.22
2022-11-16T14:59:28.800Z,98.80
2022-11-16T15:02:01.314Z,98.82
2022-11-16T15:04:30.886Z,99.36
2022-11-16T15:07:03.583Z,99.74
2022-11-16T15:09:39.455Z,99.84
2022-11-16T15:12:34.043Z,99.27
2022-11-16T15:15:07.678Z,99.37
2022-11-16T15:17:36.147Z,98.57
2022-11-16T15:20:17.335Z,98.63
2022-11-16T15:22:48.547Z,99.71
2022-11-16T15:26:02.533Z,100.00
2022-11-16T15:28:33.310Z,99.77
2022-11-16T15:31:04.983Z,99.89
2022-11-16T15:33:38.621Z,99.70
2022-11-16T15:36:32.943Z,98.45
2022-11-16T15:39:02.585Z,98.34
2022-11-16T15:41:31.978Z,98.77
2022-11-16T15:44:14.050Z,99.94
2022-11-16T15:46:47.310Z,100.00
2022-11-16T15:49:37.740Z,100.00
2022-11-16T15:52:06.704Z,100.00
2022-11-16T15:54:55.026Z,100.00
2022-11-16T15:57:24.680Z,100.00
2022-11-16T15:59:55.275Z,100.00
2022-11-16T16:02:27.730Z,100.00
2022-11-16T16:04:56.434Z,100.00
2022-11-16T16:07:39.866Z,100.00
2022-11-16T16:10:24.937Z,100.00
2022-11-16T16:12:56.025Z,100.00
2022-11-16T16:15:36.837Z,100.00
2022-11-16T16:18:36.799Z,100.00
2022-11-16T16:21:05.053Z,100.00
2022-11-16T16:23:33.689Z,100.00
2022-11-16T16:26:05.338Z,100.00
2022-11-16T16:28:33.577Z,100.00
2022-11-16T16:31:01.827Z,100.00
2022-11-16T16:33:30.278Z,100.00
2022-11-16T16:35:58.517Z,100.00
2022-11-16T16:38:26.664Z,100.00
2022-11-16T16:41:05.680Z,100.00
2022-11-16T16:43:34.538Z,100.00
2022-11-16T16:46:04.083Z,100.00
2022-11-16T16:48:32.238Z,100.00
2022-11-16T16:51:00.373Z,100.00
2022-11-16T16:53:28.546Z,100.00
2022-11-16T16:55:56.718Z,100.00
2022-11-16T16:58:24.712Z,100.00
2022-11-16T17:00:56.937Z,100.00
2022-11-16T17:03:28.177Z,100.00
2022-11-16T17:06:01.096Z,100.00
2022-11-16T17:08:37.010Z,100.00
2022-11-16T17:11:05.334Z,100.00
2022-11-16T17:13:33.734Z,100.00
2022-11-16T17:16:05.941Z,100.00
2022-11-16T17:18:34.076Z,100.00
2022-11-16T17:21:07.355Z,100.00
2022-11-16T17:23:36.576Z,100.00
2022-11-16T17:26:06.891Z,100.00
2022-11-16T17:28:35.056Z,100.00
2022-11-16T17:31:09.485Z,100.00
2022-11-16T17:33:39.519Z,100.00
2022-11-16T17:36:11.169Z,100.00
2022-11-16T17:38:40.031Z,100.00
2022-11-16T17:41:13.484Z,100.00
2022-11-16T17:43:43.966Z,100.00
2022-11-16T17:46:17.886Z,100.00
2022-11-16T17:48:47.701Z,100.00
2022-11-16T17:51:18.757Z,100.00
2022-11-16T17:53:47.435Z,100.00
2022-11-16T17:56:22.282Z,100.00
2022-11-16T17:58:51.826Z,100.00
2022-11-16T18:01:20.237Z,100.00
2022-11-16T18:03:48.532Z,100.00
2022-11-16T18:06:19.295Z,100.00
2022-11-16T18:08:47.830Z,100.00
2022-11-16T18:11:18.503Z,100.00
2022-11-16T18:13:47.891Z,100.00
2022-11-16T18:16:20.314Z,100.00
2022-11-16T18:18:49.372Z,100.00
2022-11-16T18:21:20.647Z,100.00
2022-11-16T18:23:49.889Z,100.00
2022-11-16T18:26:21.391Z,100.00
2022-11-16T18:28:51.179Z,100.00
2022-11-16T18:31:21.677Z,100.00
2022-11-16T18:33:51.360Z,100.00
2022-11-16T18:36:21.035Z,100.00
2022-11-16T18:38:49.514Z,100.00
2022-11-16T18:41:24.980Z,100.00
2022-11-16T18:44:00.622Z,100.00
2022-11-16T18:46:31.160Z,100.00
2022-11-16T18:49:00.158Z,100.00
2022-11-16T18:51:29.312Z,100.00
2022-11-16T18:53:57.737Z,100.00
2022-11-16T18:56:25.893Z,100.00
2022-11-16T18:58:54.452Z,100.00
2022-11-16T19:01:26.010Z,100.00
2022-11-16T19:03:55.747Z,100.00
2022-11-16T19:06:24.105Z,100.00
2022-11-16T19:08:59.377Z,100.00
2022-11-16T19:11:28.659Z,100.00
2022-11-16T19:14:03.982Z,100.00
2022-11-16T19:16:32.257Z,100.00
2022-11-16T19:19:01.640Z,100.00
2022-11-16T19:21:29.771Z,100.00
2022-11-16T19:23:58.662Z,100.00
2022-11-16T19:26:28.108Z,100.00
2022-11-16T19:28:56.550Z,100.00
2022-11-16T19:31:29.359Z,100.00
2022-11-16T19:34:06.317Z,100.00
2022-11-16T19:36:36.794Z,100.00
2022-11-16T19:39:05.665Z,100.00
2022-11-16T19:41:33.920Z,100.00
2022-11-16T19:44:02.628Z,100.00
2022-11-16T19:46:32.639Z,100.00
2022-11-16T19:49:01.319Z,100.00
2022-11-16T19:51:34.148Z,100.00
2022-11-16T19:54:02.752Z,100.00
2022-11-16T19:56:30.954Z,100.00
2022-11-16T19:58:58.912Z,100.00
2022-11-16T20:01:29.601Z,100.00
2022-11-16T20:04:03.442Z,100.00
2022-11-16T20:06:34.245Z,100.00
2022-11-16T20:09:08.915Z,100.00
2022-11-16T20:11:39.591Z,100.00
2022-11-16T20:14:10.842Z,100.00
2022-11-16T20:16:40.912Z,100.00
2022-11-16T20:19:10.450Z,100.00
2022-11-16T20:21:41.111Z,100.00
2022-11-16T20:24:14.887Z,100.00
2022-11-16T20:26:46.339Z,100.00
2022-11-16T20:29:17.511Z,100.00
2022-11-16T20:31:46.682Z,100.00
2022-11-16T20:34:16.808Z,100.00
2022-11-16T20:36:46.930Z,100.00
2022-11-16T20:39:16.854Z,100.00
2022-11-16T20:41:45.343Z,100.00
2022-11-16T20:44:18.368Z,100.00
2022-11-16T20:46:46.915Z,100.00
2022-11-16T20:49:15.278Z,100.00
2022-11-16T20:51:43.456Z,100.00
2022-11-16T20:54:11.956Z,100.00
2022-11-16T20:56:40.111Z,100.00
2022-11-16T20:59:08.233Z,100.00
2022-11-16T21:01:36.955Z,100.00
2022-11-16T21:04:06.488Z,100.00
2022-11-16T21:06:34.658Z,100.00
2022-11-16T21:09:04.896Z,100.00
2022-11-16T21:11:52.552Z,100.00
2022-11-16T21:14:22.004Z,100.00
2022-11-16T21:16:50.201Z,100.00
2022-11-16T21:19:18.329Z,100.00
2022-11-16T21:21:46.570Z,100.00
2022-11-16T21:24:15.136Z,100.00
2022-11-16T21:26:43.246Z,100.00
2022-11-16T21:29:11.493Z,100.00
2022-11-16T21:31:39.970Z,100.00
2022-11-16T21:34:08.145Z,100.00
2022-11-16T21:36:36.458Z,100.00
2022-11-16T21:39:04.556Z,100.00
2022-11-16T21:41:32.881Z,100.00
2022-11-16T21:44:01.258Z,100.00
2022-11-16T21:46:29.980Z,100.00
2022-11-16T21:48:58.369Z,100.00
2022-11-16T21:51:27.324Z,100.00
2022-11-16T21:53:55.727Z,100.00
2022-11-16T21:56:26.246Z,100.00
2022-11-16T21:58:54.802Z,100.00
2022-11-16T22:01:24.181Z,100.00
2022-11-16T22:04:11.290Z,100.00
2022-11-16T22:06:58.029Z,100.00
2022-11-16T22:09:26.160Z,100.00
2022-11-16T22:11:54.301Z,100.00
2022-11-16T22:14:22.355Z,100.00
2022-11-16T22:16:50.448Z,100.00
2022-11-16T22:19:18.428Z,100.00
2022-11-16T22:21:46.914Z,100.00
2022-11-16T22:24:15.192Z,100.00
2022-11-16T22:26:43.563Z,100.00
2022-11-16T22:29:11.840Z,100.00
2022-11-16T22:31:40.256Z,100.00
2022-11-16T22:34:08.498Z,100.00
2022-11-16T22:36:36.528Z,100.00
2022-11-16T22:39:04.852Z,100.00
2022-11-16T22:41:33.235Z,100.00
2022-11-16T22:44:01.436Z,100.00
2022-11-16T22:46:30.095Z,100.00
2022-11-16T22:48:58.251Z,100.00
2022-11-16T22:51:28.524Z,100.00
2022-11-16T22:53:57.701Z,100.00
2022-11-16T22:56:26.995Z,100.00
2022-11-16T22:58:55.415Z,100.00
2022-11-16T23:01:24.171Z,100.00
2022-11-16T23:03:52.291Z,100.00
2022-11-16T23:06:20.723Z,100.00
2022-11-16T23:08:48.824Z,100.00
2022-11-16T23:11:38.041Z,100.00
2022-11-16T23:14:26.248Z,100.00
2022-11-16T23:16:54.531Z,100.00
2022-11-16T23:19:46.211Z,100.00
2022-11-16T23:22:35.999Z,100.00
2022-11-16T23:25:25.781Z,100.00
2022-11-16T23:27:54.483Z,100.00
2022-11-16T23:30:24.079Z,100.00
2022-11-16T23:32:52.212Z,100.00
2022-11-16T23:35:20.540Z,100.00
2022-11-16T23:38:06.329Z,100.00
2022-11-16T23:40:37.573Z,100.00
2022-11-16T23:43:26.036Z,100.00
2022-11-16T23:45:54.401Z,100.00
2022-11-16T23:48:22.433Z,100.00
2022-11-16T23:50:50.557Z,100.00
